Kinrooi, Belgium
Current Conditions -  °F | °C
As of 7:25 PM on Monday 26 Jan 2015 (Local Time) from EBBL Reporting Station
Broken Clouds Broken Clouds  
Wind Chill:   Ceiling: 5000
Heat Index:   Visibility: 6mi
Dew Point:   Wind: 7mph
Humidity: 81%   Direction: 290°WNW
Pressure: 30.12"   Gusts: NA
Location:  51.15°N, 5.74°E
Report Text: EBBL 261825Z 29006KT 9999 SCT025 BKN050 06/03 Q1020 BLU BLU TEMPO WHT
Loading
Personal Weather Stations






























Interactive Weather Map New forecast layout! Learn more

10-Day Weather Forecast

Advertisements
Track Severe Weather on mobile